Thunder radar more information blitzortung!


Radar de pluja more information rain snow radar


Visita la nostra xarxa de llocs de meteo:

Template documentation
and downloads

And another site



No particular awareness of the weather is required.    There are no Weather-warnings

Pagina Historial Weather Underground text

Diari Resum Juny 19, 2017 Unitats:  Imperial    Mètric   Tant
« Previous Dia
SegĂźent Dia »
Diari Setmana Mensual Anual Personalitzada
  Maxima: Minima: Media:
Temperatura: TemperatureC °F 19.5 °F 27 °F
Punt de rosada: DewpointC °F 13.2 °F 16.4 °F
Humitat: Humidity % 35 % 53 %
Wind Speed: WindSpeedKMH mph 0.0 mph 8.2 mph
RĂ fegues de vent: WindSpeedGustKMH mph - -
Vent:- - SSE
Pression baro: PressurehPa in 1014.8 in -
Precipitacions: 0.0 in    
Historical Graphs
 
 
Dades de taula per Juny 19, 2017
Temps Temperatura Punt de rosada Pression baro Vent Wind Speed RĂ fegues de vent Humitat Rainfall Rate (Hourly)
TemperatureC °F DewpointC °F PressurehPa in Calm     Humidity % HourlyPrecipMM in
00:00 20.2 °F 16.2 °F 1015.8 in Calm   3.2 mph 78 % 0.0 in
00:01 23.4 °F 17.4 °F 1015.8 in NNE 3.7 mph 3.7 mph 69 % 0.0 in
00:10 20.1 °F 16.2 °F 1015.8 in NNE 1.6 mph 1.6 mph 78 % 0.0 in
00:20 20.0 °F 16.1 °F 1015.8 in Calm   3.2 mph 78 % 0.0 in
00:30 19.9 °F 15.7 °F 1015.8 in NNE 1.6 mph 3.2 mph 77 % 0.0 in
00:40 19.8 °F 15.8 °F 1015.8 in Calm   3.2 mph 78 % 0.0 in
00:50 19.7 °F 15.8 °F 1015.8 in NNE 1.6 mph 3.2 mph 78 % 0.0 in
01:00 19.7 °F 15.8 °F 1015.8 in NE 1.6 mph 1.6 mph 78 % 0.0 in
01:10 19.7 °F 15.8 °F 1015.8 in Calm   1.6 mph 78 % 0.0 in
01:20 19.7 °F 15.8 °F 1015.8 in Calm   1.6 mph 78 % 0.0 in
01:30 19.6 °F 15.7 °F 1015.8 in Calm   3.2 mph 78 % 0.0 in
01:40 19.5 °F 15.6 °F 1015.8 in NNE 1.6 mph 1.6 mph 78 % 0.0 in
01:50 19.6 °F 15.7 °F 1015.8 in Calm     78 % 0.0 in
02:00 19.7 °F 15.8 °F 1015.8 in Calm   3.2 mph 78 % 0.0 in
02:10 19.6 °F 15.7 °F 1015.8 in Calm   1.6 mph 78 % 0.0 in
02:20 19.8 °F 15.8 °F 1016.8 in SW 1.6 mph 3.2 mph 78 % 0.0 in
02:30 19.9 °F 15.9 °F 1016.8 in Calm   3.2 mph 78 % 0.0 in
02:40 20.6 °F 16.6 °F 1016.8 in SSW 1.6 mph 3.2 mph 78 % 0.0 in
02:50 20.7 °F 16.5 °F 1017.8 in Calm   3.2 mph 77 % 0.0 in
03:00 21.1 °F 16.7 °F 1017.8 in Calm   1.6 mph 76 % 0.0 in
03:10 21.7 °F 17.1 °F 1017.8 in East 1.6 mph 3.2 mph 75 % 0.0 in
03:20 22.0 °F 16.9 °F 1017.8 in ENE 1.6 mph 4.8 mph 73 % 0.0 in
03:30 22.1 °F 16.6 °F 1017.8 in ENE 3.2 mph 4.8 mph 71 % 0.0 in
03:40 22.6 °F 16.8 °F 1017.8 in ENE 3.2 mph 4.8 mph 70 % 0.0 in
03:50 22.9 °F 16.9 °F 1017.8 in East 1.6 mph 4.8 mph 69 % 0.0 in
04:00 23.4 °F 16.9 °F 1017.8 in ENE 4.8 mph 4.8 mph 67 % 0.0 in
04:10 23.4 °F 16.4 °F 1017.8 in East 4.8 mph 4.8 mph 65 % 0.0 in
04:20 23.8 °F 16.6 °F 1018.8 in East 3.2 mph 6.4 mph 64 % 0.0 in
04:30 24.3 °F 16.6 °F 1018.8 in ENE 4.8 mph 6.4 mph 62 % 0.0 in
04:40 24.5 °F 16.2 °F 1017.8 in ENE 3.2 mph 9.7 mph 60 % 0.0 in
04:50 24.6 °F 15.8 °F 1017.8 in East 8.0 mph 8.0 mph 58 % 0.0 in
05:00 25.0 °F 15.9 °F 1017.8 in East 4.8 mph 6.4 mph 57 % 0.0 in
05:10 25.3 °F 15.6 °F 1017.8 in ENE 1.6 mph 8.0 mph 55 % 0.0 in
05:20 25.9 °F 16.2 °F 1017.8 in ENE 3.2 mph 8.0 mph 55 % 0.0 in
05:30 26.7 °F 16.9 °F 1017.8 in East 4.8 mph 6.4 mph 55 % 0.0 in
05:40 26.3 °F 16.2 °F 1016.8 in ESE 4.8 mph 9.7 mph 54 % 0.0 in
05:50 26.6 °F 16.5 °F 1017.8 in East 3.2 mph 9.7 mph 54 % 0.0 in
06:00 27.2 °F 16.5 °F 1017.8 in East 3.2 mph 9.7 mph 52 % 0.0 in
06:10 27.0 °F 16.3 °F 1017.8 in East 4.8 mph 8.0 mph 52 % 0.0 in
06:20 27.4 °F 16.4 °F 1017.8 in ESE 4.8 mph 11.3 mph 51 % 0.0 in
06:30 27.8 °F 17.1 °F 1017.8 in East 3.2 mph 9.7 mph 52 % 0.0 in
06:40 27.8 °F 16.7 °F 1017.8 in East 8.0 mph 11.3 mph 51 % 0.0 in
06:50 28.0 °F 16.9 °F 1017.8 in ESE 4.8 mph 9.7 mph 51 % 0.0 in
07:00 28.4 °F 17.3 °F 1017.8 in ESE 9.7 mph 12.9 mph 51 % 0.0 in
07:10 28.7 °F 17.6 °F 1017.8 in East 8.0 mph 8.0 mph 51 % 0.0 in
07:20 28.9 °F 17.4 °F 1017.8 in East 9.7 mph 9.7 mph 50 % 0.0 in
07:30 29.7 °F 16.8 °F 1017.8 in East 4.8 mph 16.1 mph 46 % 0.0 in
12:40 29.3 °F 16.8 °F 1017.8 in ESE 13.0 mph 13.0 mph 47 % 0.0 in
12:41 29.3 °F 16.8 °F 1017.8 in East 14.8 mph 14.8 mph 47 % 0.0 in
12:46 29.4 °F 17.2 °F 1017.8 in NE 20.4 mph 20.4 mph 48 % 0.0 in
12:51 29.4 °F 17.6 °F 1017.8 in NE 16.4 mph 16.4 mph 49 % 0.0 in
12:56 29.3 °F 17.5 °F 1017.8 in ESE 16.7 mph 16.7 mph 49 % 0.0 in
13:01 29.1 °F 17.3 °F 1017.8 in NE 11.1 mph 11.1 mph 49 % 0.0 in
13:06 29.3 °F 17.5 °F 1017.8 in East 19.8 mph 19.8 mph 49 % 0.0 in
13:11 29.6 °F 17.8 °F 1017.8 in East 20.9 mph 20.9 mph 49 % 0.0 in
13:16 29.3 °F 17.5 °F 1017.8 in SSE 22.2 mph 22.2 mph 49 % 0.0 in
13:21 29.6 °F 17.8 °F 1017.8 in ESE 12.6 mph 12.6 mph 49 % 0.0 in
13:22 29.6 °F 17.8 °F 1017.8 in ESE 15.1 mph 15.1 mph 49 % 0.0 in
13:27 29.1 °F 17.3 °F 1017.8 in ENE 15.6 mph 15.6 mph 49 % 0.0 in
13:32 29.1 °F 17.3 °F 1016.8 in ESE 13.7 mph 13.7 mph 49 % 0.0 in
13:37 29.3 °F 17.8 °F 1016.8 in ESE 17.2 mph 17.2 mph 50 % 0.0 in
13:42 29.6 °F 18.1 °F 1016.8 in ESE 14.8 mph 14.8 mph 50 % 0.0 in
13:47 29.5 °F 17.7 °F 1017.8 in East 11.9 mph 11.9 mph 49 % 0.0 in
13:52 29.5 °F 17.3 °F 1017.8 in SE 13.0 mph 13.0 mph 48 % 0.0 in
13:57 29.4 °F 17.2 °F 1017.8 in East 17.2 mph 17.2 mph 48 % 0.0 in
14:02 29.8 °F 17.6 °F 1016.8 in NE 9.5 mph 9.5 mph 48 % 0.0 in
14:07 29.9 °F 17.7 °F 1016.8 in East 13.0 mph 13.0 mph 48 % 0.0 in
14:12 30.1 °F 17.6 °F 1016.8 in SSE 13.0 mph 13.0 mph 47 % 0.0 in
14:17 30.1 °F 17.2 °F 1017.8 in ESE 16.7 mph 16.7 mph 46 % 0.0 in
14:22 29.9 °F 17.4 °F 1017.8 in ESE 14.8 mph 14.8 mph 47 % 0.0 in
14:27 29.7 °F 17.2 °F 1017.8 in ESE 18.5 mph 18.5 mph 47 % 0.0 in
14:32 29.4 °F 16.9 °F 1017.8 in ESE 13.0 mph 13.0 mph 47 % 0.0 in
14:37 29.9 °F 17.7 °F 1017.8 in ENE 16.7 mph 16.7 mph 48 % 0.0 in
14:42 29.8 °F 17.3 °F 1017.8 in ENE 18.5 mph 18.5 mph 47 % 0.0 in
14:47 29.8 °F 17.6 °F 1017.8 in ESE 19.0 mph 19.0 mph 48 % 0.0 in
14:52 29.5 °F 17.3 °F 1017.8 in SSE 14.8 mph 14.8 mph 48 % 0.0 in
14:57 30.0 °F 17.8 °F 1017.8 in ESE 13.0 mph 13.0 mph 48 % 0.0 in
15:02 29.9 °F 18.1 °F 1017.8 in ESE 11.1 mph 11.1 mph 49 % 0.0 in
15:07 29.8 °F 17.9 °F 1017.8 in ESE 18.5 mph 18.5 mph 49 % 0.0 in
15:12 29.8 °F 17.9 °F 1017.8 in ESE 18.5 mph 18.5 mph 49 % 0.0 in
15:17 30.0 °F 18.1 °F 1017.8 in SSE 13.0 mph 13.0 mph 49 % 0.0 in
15:22 29.8 °F 17.6 °F 1017.8 in ESE 13.0 mph 13.0 mph 48 % 0.0 in
15:27 30.0 °F 17.8 °F 1017.8 in ESE 16.9 mph 16.9 mph 48 % 0.0 in
15:32 30.2 °F 17.7 °F 1017.8 in SE 13.0 mph 13.0 mph 47 % 0.0 in
15:37 30.1 °F 17.9 °F 1017.8 in SSE 13.0 mph 13.0 mph 48 % 0.0 in
15:42 31.0 °F 18.0 °F 1017.8 in East 9.3 mph 9.3 mph 46 % 0.0 in
15:47 31.0 °F 17.7 °F 1017.8 in SSE 10.0 mph 10.0 mph 45 % 0.0 in
15:52 30.4 °F 18.2 °F 1017.8 in ESE 16.7 mph 16.7 mph 48 % 0.0 in
15:57 30.0 °F 17.4 °F 1017.8 in SE 18.5 mph 18.5 mph 47 % 0.0 in
16:02 30.0 °F 17.4 °F 1017.8 in East 15.1 mph 15.1 mph 47 % 0.0 in
16:07 29.8 °F 17.9 °F 1017.8 in ENE 14.8 mph 14.8 mph 49 % 0.0 in
16:12 30.1 °F 17.9 °F 1017.8 in ESE 14.8 mph 14.8 mph 48 % 0.0 in
16:17 30.0 °F 17.8 °F 1017.8 in ESE 16.7 mph 16.7 mph 48 % 0.0 in
16:22 29.8 °F 17.9 °F 1017.8 in ESE 16.7 mph 16.7 mph 49 % 0.0 in
16:27 29.8 °F 17.9 °F 1017.8 in ENE 14.8 mph 14.8 mph 49 % 0.0 in
16:32 29.8 °F 17.9 °F 1016.8 in SE 18.5 mph 18.5 mph 49 % 0.0 in
16:37 29.9 °F 18.1 °F 1016.8 in SE 13.0 mph 13.0 mph 49 % 0.0 in
16:42 30.1 °F 18.2 °F 1016.8 in ENE 10.3 mph 10.3 mph 49 % 0.0 in
16:47 29.8 °F 18.3 °F 1017.8 in NE 16.7 mph 16.7 mph 50 % 0.0 in
16:52 29.8 °F 18.3 °F 1017.8 in ESE 20.4 mph 20.4 mph 50 % 0.0 in
16:57 30.3 °F 18.1 °F 1017.8 in SE 11.1 mph 11.1 mph 48 % 0.0 in
17:02 30.7 °F 18.1 °F 1016.8 in SW 16.4 mph 16.4 mph 47 % 0.0 in
17:07 31.3 °F 18.3 °F 1016.8 in SE 11.1 mph 11.1 mph 46 % 0.0 in
17:12 30.9 °F 18.3 °F 1016.8 in NE 11.1 mph 11.1 mph 47 % 0.0 in
17:17 31.7 °F 18.7 °F 1016.8 in South 7.4 mph 7.4 mph 46 % 0.0 in
17:22 31.3 °F 18.3 °F 1016.8 in ESE 11.9 mph 11.9 mph 46 % 0.0 in
17:27 31.4 °F 18.4 °F 1016.8 in SE 9.3 mph 9.3 mph 46 % 0.0 in
17:32 31.1 °F 17.8 °F 1015.8 in South 9.3 mph 9.3 mph 45 % 0.0 in
17:37 31.0 °F 18.0 °F 1015.8 in ESE 9.3 mph 9.3 mph 46 % 0.0 in
17:42 30.8 °F 18.2 °F 1015.8 in SSE 9.3 mph 9.3 mph 47 % 0.0 in
17:47 31.0 °F 18.0 °F 1015.8 in SSW 9.3 mph 9.3 mph 46 % 0.0 in
17:52 31.8 °F 18.4 °F 1015.8 in South 9.3 mph 9.3 mph 45 % 0.0 in
17:57 31.4 °F 17.3 °F 1015.8 in SSE 7.4 mph 7.4 mph 43 % 0.0 in
18:02 30.9 °F 17.9 °F 1015.8 in ESE 3.7 mph 3.7 mph 46 % 0.0 in
18:07 30.7 °F 18.1 °F 1015.8 in SSW 9.3 mph 9.3 mph 47 % 0.0 in
18:12 31.1 °F 18.1 °F 1015.8 in SSE 16.7 mph 16.7 mph 46 % 0.0 in
18:17 31.2 °F 18.2 °F 1014.8 in SSW 5.6 mph 5.6 mph 46 % 0.0 in
18:22 31.5 °F 17.8 °F 1014.8 in ESE 9.5 mph 9.5 mph 44 % 0.0 in
18:27 31.6 °F 16.7 °F 1014.8 in SSW 9.3 mph 9.3 mph 41 % 0.0 in
18:32 32.1 °F 17.2 °F 1014.8 in SW 13.0 mph 13.0 mph 41 % 0.0 in
18:37 31.4 °F 16.9 °F 1014.8 in SE 13.0 mph 13.0 mph 42 % 0.0 in
18:42 31.6 °F 16.7 °F 1014.8 in West 3.7 mph 3.7 mph 41 % 0.0 in
18:47 31.7 °F 16.1 °F 1015.8 in WSW 9.3 mph 9.3 mph 39 % 0.0 in
18:52 31.9 °F 16.6 °F 1015.8 in WSW 7.4 mph 7.4 mph 40 % 0.0 in
18:57 31.4 °F 15.4 °F 1015.8 in WSW 9.3 mph 9.3 mph 38 % 0.0 in
19:02 31.7 °F 15.6 °F 1015.8 in SW 9.7 mph 9.7 mph 38 % 0.0 in
19:07 31.3 °F 14.9 °F 1015.8 in South 13.0 mph 13.0 mph 37 % 0.0 in
19:12 30.9 °F 14.5 °F 1015.8 in SW 9.3 mph 9.3 mph 37 % 0.0 in
19:17 31.0 °F 14.2 °F 1015.8 in SW 3.7 mph 3.7 mph 36 % 0.0 in
19:22 31.1 °F 14.7 °F 1015.8 in SW 7.4 mph 7.4 mph 37 % 0.0 in
19:27 30.9 °F 14.1 °F 1015.8 in SSE 9.7 mph 9.7 mph 36 % 0.0 in
19:32 30.5 °F 13.7 °F 1014.8 in SW 9.3 mph 9.3 mph 36 % 0.0 in
19:37 30.5 °F 13.7 °F 1014.8 in SSW 7.4 mph 7.4 mph 36 % 0.0 in
19:42 30.6 °F 13.8 °F 1014.8 in WSW 7.4 mph 7.4 mph 36 % 0.0 in
19:47 30.4 °F 13.2 °F 1015.8 in SW 13.0 mph 13.0 mph 35 % 0.0 in
19:52 30.1 °F 13.4 °F 1015.8 in SW 3.7 mph 3.7 mph 36 % 0.0 in
19:57 30.1 °F 13.4 °F 1015.8 in South 6.1 mph 6.1 mph 36 % 0.0 in
20:02 29.7 °F 13.4 °F 1015.8 in South 11.1 mph 11.1 mph 37 % 0.0 in
20:07 29.6 °F 13.4 °F 1015.8 in WSW 7.4 mph 7.4 mph 37 % 0.0 in
20:12 29.4 °F 13.2 °F 1015.8 in South 7.4 mph 7.4 mph 37 % 0.0 in
20:17 29.1 °F 13.3 °F 1015.8 in SW 11.1 mph 11.1 mph 38 % 0.0 in
20:22 29.1 °F 13.3 °F 1015.8 in SSW 5.6 mph 5.6 mph 38 % 0.0 in
20:27 28.9 °F 13.6 °F 1015.8 in South 11.9 mph 11.9 mph 39 % 0.0 in
20:32 28.8 °F 13.8 °F 1015.8 in SW 8.7 mph 8.7 mph 40 % 0.0 in
20:37 28.6 °F 13.7 °F 1015.8 in SSW 7.4 mph 7.4 mph 40 % 0.0 in
20:42 28.4 °F 13.9 °F 1015.8 in South 7.9 mph 7.9 mph 41 % 0.0 in
20:47 28.2 °F 14.1 °F 1015.8 in SW 9.3 mph 9.3 mph 42 % 0.0 in
20:52 28.0 °F 13.9 °F 1015.8 in South 5.6 mph 5.6 mph 42 % 0.0 in
20:57 27.8 °F 13.7 °F 1015.8 in South 13.0 mph 13.0 mph 42 % 0.0 in
21:02 27.7 °F 14.0 °F 1015.8 in WSW 5.6 mph 5.6 mph 43 % 0.0 in
21:07 27.5 °F 13.8 °F 1015.8 in SW 5.6 mph 5.6 mph 43 % 0.0 in
21:12 27.3 °F 14.0 °F 1015.8 in SW 7.4 mph 7.4 mph 44 % 0.0 in
21:17 27.1 °F 13.8 °F 1016.8 in SW 5.6 mph 5.6 mph 44 % 0.0 in
21:22 27.0 °F 14.1 °F 1016.8 in SSE 5.6 mph 5.6 mph 45 % 0.0 in
21:27 26.8 °F 14.2 °F 1016.8 in SW 3.7 mph 3.7 mph 46 % 0.0 in
21:32 26.6 °F 14.3 °F 1016.8 in SSW 5.0 mph 5.0 mph 47 % 0.0 in
21:37 26.5 °F 14.3 °F 1016.8 in West 7.4 mph 7.4 mph 47 % 0.0 in
21:42 26.3 °F 14.4 °F 1016.8 in WSW 7.4 mph 7.4 mph 48 % 0.0 in
21:47 26.2 °F 14.3 °F 1017.8 in South 5.6 mph 5.6 mph 48 % 0.0 in
21:52 25.9 °F 14.4 °F 1017.8 in SW 5.6 mph 5.6 mph 49 % 0.0 in
21:57 25.7 °F 14.2 °F 1017.8 in SSW 6.4 mph 6.4 mph 49 % 0.0 in
22:02 25.6 °F 14.4 °F 1017.8 in SSW 7.4 mph 7.4 mph 50 % 0.0 in
22:07 25.4 °F 14.5 °F 1017.8 in SSW 9.3 mph 9.3 mph 51 % 0.0 in
22:12 25.2 °F 14.7 °F 1017.8 in SW 9.3 mph 9.3 mph 52 % 0.0 in
22:17 25.1 °F 14.8 °F 1016.8 in SW 7.4 mph 7.4 mph 53 % 0.0 in
22:22 25.0 °F 14.8 °F 1016.8 in SSW 7.4 mph 7.4 mph 53 % 0.0 in
22:27 24.9 °F 15.2 °F 1016.8 in SW 5.6 mph 5.6 mph 55 % 0.0 in
22:32 24.8 °F 15.2 °F 1017.8 in WSW 5.6 mph 5.6 mph 55 % 0.0 in
22:37 24.6 °F 15.2 °F 1017.8 in SW 7.4 mph 7.4 mph 56 % 0.0 in
22:40 21.8 °F 18.4 °F 1017.8 in Calm   1.6 mph 81 % 0.0 in
22:42 24.6 °F 15.2 °F 1017.8 in SW 5.6 mph 5.6 mph 56 % 0.0 in
22:47 24.5 °F 15.4 °F 1018.8 in SW 3.7 mph 4.2 mph 57 % 0.0 in
22:50 21.7 °F 18.3 °F 1017.8 in Calm   1.6 mph 81 % 0.0 in
22:52 24.3 °F 15.5 °F 1018.8 in WSW 5.6 mph 5.6 mph 58 % 0.0 in
22:53 24.3 °F 15.5 °F 1018.8 in WSW 5.6 mph 5.6 mph 58 % 0.0 in
22:58 24.3 °F 15.5 °F 1018.8 in WSW 3.9 mph 3.9 mph 58 % 0.0 in
23:00 21.7 °F 18.5 °F 1017.8 in Calm     82 % 0.0 in
23:03 24.2 °F 15.7 °F 1017.8 in SW 3.7 mph 3.7 mph 59 % 0.0 in
23:08 24.1 °F 15.8 °F 1017.8 in SW 3.9 mph 3.9 mph 60 % 0.0 in
23:10 21.5 °F 18.1 °F 1016.8 in Calm   1.6 mph 81 % 0.0 in
23:13 24.0 °F 16.0 °F 1017.8 in SW 3.7 mph 3.7 mph 61 % 0.0 in
23:18 23.9 °F 16.2 °F 1017.8 in SSW 4.2 mph 4.2 mph 62 % 0.0 in
23:20 21.4 °F 18.0 °F 1016.8 in Calm   1.6 mph 81 % 0.0 in
23:23 23.9 °F 16.7 °F 1017.8 in WSW 5.6 mph 5.6 mph 64 % 0.0 in
23:28 23.8 °F 16.6 °F 1017.8 in SW 4.2 mph 4.2 mph 64 % 0.0 in
23:30 21.2 °F 17.8 °F 1016.8 in SW 1.6 mph 3.2 mph 81 % 0.0 in
23:33 23.7 °F 16.7 °F 1017.8 in SW 5.6 mph 5.6 mph 65 % 0.0 in
23:38 23.7 °F 17.2 °F 1017.8 in SW 4.2 mph 4.2 mph 67 % 0.0 in
23:40 21.0 °F 17.4 °F 1015.8 in SW 3.2 mph 3.2 mph 80 % 0.0 in
23:43 23.6 °F 17.1 °F 1017.8 in SW 3.7 mph 3.7 mph 67 % 0.0 in
23:44 23.6 °F 17.1 °F 1017.8 in WSW 3.9 mph 3.9 mph 67 % 0.0 in
23:49 23.5 °F 17.3 °F 1017.8 in SW 3.7 mph 3.7 mph 68 % 0.0 in
23:50 20.9 °F 17.5 °F 1015.8 in SW 1.6 mph 3.2 mph 81 % 0.0 in
23:54 23.5 °F 17.5 °F 1017.8 in SW 3.7 mph 3.7 mph 69 % 0.0 in
23:59 23.4 °F 17.6 °F 1017.8 in SW 1.9 mph 2.3 mph 70 % 0.0 in
Meteo Sesrovires
Elogis d' Weather Underground - 2 mb

Guio original per  Jim McMurry - jmcmurry@mwt.net Adaptat per a la plantilla per  Wim van der Kuil - Leuven-Template.eu

Trobareu la nostra informacio del temps tambe a:

Weather Underground

AWEKAS